createdAt,value
2022-10-19T00:01:24.746Z,3.30
2022-10-19T00:03:56.937Z,3.00
2022-10-19T00:06:27.584Z,2.80
2022-10-19T00:08:58.402Z,3.15
2022-10-19T00:11:27.963Z,3.40
2022-10-19T00:13:58.099Z,2.85
2022-10-19T00:16:28.867Z,2.92
2022-10-19T00:18:59.593Z,3.03
2022-10-19T00:21:28.665Z,3.03
2022-10-19T00:23:57.340Z,2.60
2022-10-19T00:26:26.209Z,2.90
2022-10-19T00:28:55.684Z,3.10
2022-10-19T00:31:25.105Z,3.20
2022-10-19T00:33:54.799Z,2.85
2022-10-19T00:36:26.587Z,2.92
2022-10-19T00:38:56.151Z,3.00
2022-10-19T00:41:27.260Z,3.13
2022-10-19T00:43:58.488Z,3.20
2022-10-19T00:46:28.973Z,3.15
2022-10-19T00:49:01.530Z,2.72
2022-10-19T00:51:34.685Z,2.72
2022-10-19T00:54:05.767Z,2.75
2022-10-19T00:56:35.216Z,2.88
2022-10-19T00:59:05.635Z,2.55
2022-10-19T01:01:35.288Z,2.97
2022-10-19T01:04:04.901Z,2.63
2022-10-19T01:06:36.276Z,2.60
2022-10-19T01:09:05.047Z,3.15
2022-10-19T01:11:46.152Z,2.50
2022-10-19T01:14:27.171Z,3.03
2022-10-19T01:17:03.599Z,2.72
2022-10-19T01:20:06.524Z,2.65
2022-10-19T01:22:52.399Z,2.30
2022-10-19T01:25:25.721Z,2.42
2022-10-19T01:28:19.181Z,2.15
2022-10-19T01:30:54.776Z,2.20
2022-10-19T01:33:32.907Z,2.28
2022-10-19T01:36:14.421Z,2.40
2022-10-19T01:38:51.843Z,2.15
2022-10-19T01:41:27.211Z,2.53
2022-10-19T01:44:00.946Z,2.20
2022-10-19T01:46:37.516Z,2.28
2022-10-19T01:49:11.370Z,2.40
2022-10-19T01:51:44.986Z,2.10
2022-10-19T01:54:16.672Z,2.50
2022-10-19T01:56:48.855Z,2.10
2022-10-19T01:59:20.489Z,3.05
2022-10-19T02:01:53.678Z,2.45
2022-10-19T02:04:25.020Z,2.50
2022-10-19T02:06:55.105Z,2.13
2022-10-19T02:09:23.768Z,2.20
2022-10-19T02:11:57.763Z,2.83
2022-10-19T02:14:31.744Z,2.35
2022-10-19T02:17:05.504Z,2.47
2022-10-19T02:19:34.294Z,2.78
2022-10-19T02:22:03.487Z,2.60
2022-10-19T02:24:32.108Z,2.47
2022-10-19T02:27:01.840Z,2.60
2022-10-19T02:29:30.357Z,2.80
2022-10-19T02:31:58.864Z,2.97
2022-10-19T02:34:29.060Z,2.38
2022-10-19T02:36:57.877Z,2.38
2022-10-19T02:39:26.790Z,2.10
2022-10-19T02:42:00.145Z,2.58
2022-10-19T02:44:32.795Z,2.20
2022-10-19T02:47:06.782Z,2.47
2022-10-19T02:49:38.777Z,2.70
2022-10-19T02:52:09.404Z,2.47
2022-10-19T02:54:38.753Z,2.10
2022-10-19T02:57:17.312Z,2.45
2022-10-19T02:59:45.879Z,2.70
2022-10-19T03:02:14.779Z,2.47
2022-10-19T03:07:21.063Z,2.30
2022-10-19T03:09:49.744Z,2.50
2022-10-19T03:12:18.855Z,2.40
2022-10-19T03:14:47.368Z,2.10
2022-10-19T03:17:16.024Z,2.50
2022-10-19T03:19:45.929Z,2.30
2022-10-19T03:22:14.901Z,2.42
2022-10-19T03:24:43.471Z,2.58
2022-10-19T03:27:11.997Z,2.30
2022-10-19T03:29:40.616Z,2.72
2022-10-19T03:32:09.088Z,1.83
2022-10-19T03:34:37.581Z,2.90
2022-10-19T03:37:08.856Z,2.00
2022-10-19T03:39:37.348Z,2.15
2022-10-19T03:42:05.977Z,2.20
2022-10-19T03:44:34.557Z,1.85
2022-10-19T03:47:03.059Z,1.90
2022-10-19T03:49:32.353Z,2.03
2022-10-19T03:52:01.460Z,2.05
2022-10-19T03:54:31.364Z,1.63
2022-10-19T03:57:00.053Z,1.98
2022-10-19T03:59:28.637Z,2.25
2022-10-19T04:01:57.103Z,1.85
2022-10-19T04:04:25.893Z,2.03
2022-10-19T04:06:54.399Z,2.45
2022-10-19T04:09:24.262Z,2.88
2022-10-19T04:11:54.748Z,2.10
2022-10-19T04:14:32.031Z,1.67
2022-10-19T04:17:01.842Z,2.10
2022-10-19T04:19:30.444Z,1.85
2022-10-19T04:21:59.341Z,1.92
2022-10-19T04:24:28.183Z,2.10
2022-10-19T04:26:58.099Z,2.05
2022-10-19T04:29:29.934Z,1.70
2022-10-19T04:31:59.744Z,1.90
2022-10-19T04:34:28.611Z,1.98
2022-10-19T04:36:59.524Z,1.63
2022-10-19T04:39:28.210Z,1.98
2022-10-19T04:41:58.151Z,1.90
2022-10-19T04:44:26.703Z,2.13
2022-10-19T04:46:55.261Z,2.22
2022-10-19T04:49:23.911Z,2.13
2022-10-19T04:51:52.408Z,2.00
2022-10-19T04:54:20.877Z,1.98
2022-10-19T04:56:50.190Z,2.05
2022-10-19T04:59:20.056Z,1.90
2022-10-19T05:01:48.517Z,1.63
2022-10-19T05:04:17.007Z,2.17
2022-10-19T05:06:45.547Z,1.90
2022-10-19T05:09:14.140Z,2.90
2022-10-19T05:11:42.638Z,3.55
2022-10-19T05:14:11.128Z,1.70
2022-10-19T05:16:41.062Z,1.80
2022-10-19T05:19:14.391Z,2.17
2022-10-19T05:21:43.466Z,1.35
2022-10-19T05:24:12.984Z,2.03
2022-10-19T05:26:41.486Z,1.90
2022-10-19T05:29:13.466Z,1.85
2022-10-19T05:31:43.375Z,1.80
2022-10-19T05:34:11.887Z,1.83
2022-10-19T05:36:40.933Z,1.52
2022-10-19T05:39:14.115Z,1.80
2022-10-19T05:41:44.893Z,2.15
2022-10-19T05:44:16.565Z,1.50
2022-10-19T05:46:47.696Z,1.95
2022-10-19T05:49:18.196Z,1.92
2022-10-19T05:51:46.776Z,1.65
2022-10-19T05:54:16.166Z,1.63
2022-10-19T05:56:45.035Z,1.90
2022-10-19T05:59:17.759Z,1.88
2022-10-19T06:01:49.061Z,1.67
2022-10-19T06:06:51.385Z,1.88
2022-10-19T06:09:20.046Z,1.90
2022-10-19T06:11:49.683Z,1.90
2022-10-19T06:14:18.311Z,1.63
2022-10-19T06:16:48.228Z,1.98
2022-10-19T06:19:16.714Z,1.77
2022-10-19T06:21:46.556Z,2.13
2022-10-19T06:24:15.464Z,2.28
2022-10-19T06:26:43.974Z,1.90
2022-10-19T06:29:12.790Z,2.00
2022-10-19T06:31:41.333Z,2.00
2022-10-19T06:34:11.285Z,1.58
2022-10-19T06:36:39.847Z,1.90
2022-10-19T06:39:08.463Z,2.00
2022-10-19T06:41:37.084Z,1.73
2022-10-19T06:44:05.638Z,1.90
2022-10-19T06:46:34.164Z,1.95
2022-10-19T06:49:03.645Z,1.88
2022-10-19T06:51:34.202Z,1.80
2022-10-19T06:54:02.884Z,2.10
2022-10-19T06:56:31.488Z,1.80
2022-10-19T06:59:00.357Z,1.83
2022-10-19T07:01:29.272Z,1.92
2022-10-19T07:03:57.833Z,1.90
2022-10-19T07:06:28.439Z,2.25
2022-10-19T07:08:58.452Z,2.08
2022-10-19T07:11:26.943Z,1.90
2022-10-19T07:13:55.703Z,1.83
2022-10-19T07:16:24.640Z,1.85
2022-10-19T07:18:54.370Z,2.30
2022-10-19T07:21:24.384Z,1.88
2022-10-19T07:23:53.114Z,1.40
2022-10-19T07:26:26.809Z,1.73
2022-10-19T07:28:57.556Z,1.60
2022-10-19T07:31:27.381Z,1.45
2022-10-19T07:33:56.614Z,2.03
2022-10-19T07:36:26.677Z,1.70
2022-10-19T07:38:56.038Z,2.00
2022-10-19T07:41:26.897Z,1.70
2022-10-19T07:43:57.826Z,2.15
2022-10-19T07:46:29.249Z,1.98
2022-10-19T07:48:58.152Z,1.60
2022-10-19T07:54:01.323Z,2.20
2022-10-19T07:56:31.839Z,1.83
2022-10-19T07:59:01.942Z,1.90
2022-10-19T08:01:32.836Z,2.08
2022-10-19T08:06:51.403Z,1.95
2022-10-19T08:09:47.180Z,2.42
2022-10-19T08:12:14.611Z,2.70
2022-10-19T08:14:43.863Z,2.17
2022-10-19T08:17:16.783Z,2.00
2022-10-19T08:19:45.617Z,2.03
2022-10-19T08:22:14.225Z,2.30
2022-10-19T08:24:42.751Z,7.47
2022-10-19T08:27:12.750Z,2.60
2022-10-19T08:29:41.500Z,2.28
2022-10-19T08:32:10.379Z,2.03
2022-10-19T08:34:39.206Z,2.08
2022-10-19T08:37:19.734Z,2.22
2022-10-19T08:39:56.335Z,2.38
2022-10-19T08:42:33.045Z,2.08
2022-10-19T08:45:35.100Z,2.78
2022-10-19T08:48:24.081Z,1.85
2022-10-19T08:50:53.694Z,2.30
2022-10-19T08:53:28.722Z,2.35
2022-10-19T08:56:12.449Z,2.00
2022-10-19T08:59:03.715Z,2.40
2022-10-19T09:01:40.815Z,1.73
2022-10-19T09:04:16.455Z,2.30
2022-10-19T09:06:52.670Z,1.77
2022-10-19T09:09:22.263Z,2.33
2022-10-19T09:11:56.671Z,1.88
2022-10-19T09:14:32.683Z,2.50
2022-10-19T09:17:05.898Z,1.98
2022-10-19T09:19:34.680Z,7.35
2022-10-19T09:22:06.386Z,2.13
2022-10-19T09:24:43.905Z,2.30
2022-10-19T09:27:20.132Z,3.28
2022-10-19T09:29:55.138Z,2.22
2022-10-19T09:32:27.715Z,2.08
2022-10-19T09:35:01.284Z,2.42
2022-10-19T09:40:06.726Z,15.50
2022-10-19T09:42:37.096Z,2.03
2022-10-19T09:45:18.264Z,2.10
2022-10-19T09:47:49.594Z,1.92
2022-10-19T09:50:21.375Z,2.33
2022-10-19T09:52:51.258Z,2.70
2022-10-19T09:55:27.780Z,2.58
2022-10-19T09:58:02.276Z,2.45
2022-10-19T10:00:42.288Z,2.28
2022-10-19T10:03:25.452Z,1.67
2022-10-19T10:05:54.989Z,2.30
2022-10-19T10:08:27.068Z,2.60
2022-10-19T10:11:04.677Z,2.80
2022-10-19T10:13:38.636Z,2.50
2022-10-19T10:16:12.044Z,1.80
2022-10-19T10:18:52.472Z,1.80
2022-10-19T10:21:26.510Z,2.25
2022-10-19T10:24:05.371Z,1.85
2022-10-19T10:26:39.312Z,1.90
2022-10-19T10:29:19.704Z,1.80
2022-10-19T10:31:53.006Z,5.00
2022-10-19T10:34:49.390Z,2.10
2022-10-19T10:37:23.017Z,1.73
2022-10-19T10:39:53.862Z,1.48
2022-10-19T10:42:29.598Z,1.83
2022-10-19T10:44:58.653Z,1.30
2022-10-19T10:47:30.701Z,1.60
2022-10-19T10:50:02.859Z,1.60
2022-10-19T10:52:32.402Z,1.27
2022-10-19T10:55:03.721Z,1.40
2022-10-19T10:57:36.685Z,1.42
2022-10-19T11:00:11.459Z,9.60
2022-10-19T11:02:49.221Z,1.40
2022-10-19T11:05:23.843Z,1.40
2022-10-19T11:07:55.723Z,1.30
2022-10-19T11:10:28.139Z,1.48
2022-10-19T11:13:05.674Z,2.15
2022-10-19T11:15:38.768Z,1.90
2022-10-19T11:18:17.520Z,1.33
2022-10-19T11:20:54.430Z,1.13
2022-10-19T11:23:37.436Z,1.30
2022-10-19T11:26:20.140Z,1.65
2022-10-19T11:29:03.793Z,1.90
2022-10-19T11:31:44.672Z,1.57
2022-10-19T11:34:31.862Z,1.52
2022-10-19T11:37:08.248Z,1.50
2022-10-19T11:39:50.684Z,1.65
2022-10-19T11:42:25.240Z,1.40
2022-10-19T11:45:05.973Z,2.10
2022-10-19T11:47:54.799Z,1.65
2022-10-19T11:50:44.136Z,1.88
2022-10-19T11:55:59.984Z,1.60
2022-10-19T11:58:45.311Z,1.35
2022-10-19T12:01:23.946Z,1.52
2022-10-19T12:04:24.097Z,1.50
2022-10-19T12:07:04.561Z,1.60
2022-10-19T12:09:47.688Z,1.60
2022-10-19T12:12:26.021Z,1.90
2022-10-19T12:15:02.570Z,1.30
2022-10-19T12:17:34.195Z,1.80
2022-10-19T12:20:07.684Z,1.70
2022-10-19T12:22:38.845Z,1.67
2022-10-19T12:25:07.992Z,4.47
2022-10-19T12:27:38.498Z,1.65
2022-10-19T12:30:10.170Z,1.60
2022-10-19T12:32:46.716Z,1.80
2022-10-19T12:35:29.975Z,1.58
2022-10-19T12:38:08.126Z,1.40
2022-10-19T12:40:41.415Z,2.28
2022-10-19T12:43:16.449Z,2.30
2022-10-19T12:45:49.547Z,1.50
2022-10-19T12:48:21.984Z,2.10
2022-10-19T12:51:02.332Z,1.70
2022-10-19T12:53:36.221Z,1.50
2022-10-19T12:56:07.961Z,1.80
2022-10-19T12:58:47.711Z,1.98
2022-10-19T13:01:21.373Z,1.60
2022-10-19T13:03:54.035Z,1.60
2022-10-19T13:06:34.421Z,1.70
2022-10-19T13:09:07.749Z,1.80
2022-10-19T13:11:38.405Z,2.10
2022-10-19T13:14:08.864Z,1.80
2022-10-19T13:16:56.509Z,1.50
2022-10-19T13:19:25.931Z,2.20
2022-10-19T13:22:03.862Z,2.50
2022-10-19T13:24:36.975Z,1.60
2022-10-19T13:27:29.176Z,1.70
2022-10-19T13:29:57.820Z,1.58
2022-10-19T13:32:43.298Z,1.52
2022-10-19T13:35:31.784Z,1.65
2022-10-19T13:38:28.234Z,2.00
2022-10-19T13:41:11.848Z,1.90
2022-10-19T13:43:51.558Z,1.75
2022-10-19T13:46:23.576Z,1.40
2022-10-19T13:49:23.132Z,1.50
2022-10-19T13:52:04.260Z,1.65
2022-10-19T13:54:53.101Z,3.88
2022-10-19T13:57:33.269Z,1.80
2022-10-19T14:00:20.854Z,2.15
2022-10-19T14:03:27.339Z,2.70
2022-10-19T14:06:09.032Z,1.90
2022-10-19T14:09:17.004Z,2.35
2022-10-19T14:11:48.487Z,2.10
2022-10-19T14:14:21.821Z,1.83
2022-10-19T14:16:55.217Z,1.93
2022-10-19T14:19:29.852Z,2.00
2022-10-19T14:22:01.528Z,2.08
2022-10-19T14:24:32.803Z,13.32
2022-10-19T14:27:03.303Z,2.22
2022-10-19T14:29:38.399Z,2.00
2022-10-19T14:32:07.112Z,1.95
2022-10-19T14:34:40.059Z,2.00
2022-10-19T14:37:17.118Z,29.65
2022-10-19T14:39:59.139Z,3.03
2022-10-19T14:42:41.071Z,2.05
2022-10-19T14:45:21.224Z,1.63
2022-10-19T14:47:58.792Z,2.30
2022-10-19T14:50:44.590Z,2.10
2022-10-19T14:53:33.979Z,4.30
2022-10-19T14:56:07.493Z,2.05
2022-10-19T14:58:42.716Z,2.63
2022-10-19T15:01:13.461Z,2.30
2022-10-19T15:03:44.411Z,1.92
2022-10-19T15:06:20.627Z,1.73
2022-10-19T15:11:28.073Z,8.57
2022-10-19T15:16:44.559Z,2.20
2022-10-19T15:19:19.600Z,2.03
2022-10-19T15:21:54.849Z,2.00
2022-10-19T15:24:28.268Z,1.80
2022-10-19T15:27:08.682Z,1.63
2022-10-19T15:29:38.782Z,2.05
2022-10-19T15:32:24.073Z,1.88
2022-10-19T15:34:52.969Z,1.73
2022-10-19T15:37:24.359Z,2.30
2022-10-19T15:39:53.650Z,1.98
2022-10-19T15:42:38.823Z,2.72
2022-10-19T15:45:32.724Z,2.50
2022-10-19T15:48:49.945Z,2.15
2022-10-19T15:51:47.547Z,3.13
2022-10-19T15:54:18.258Z,3.10
2022-10-19T15:56:48.550Z,3.72
2022-10-19T15:59:23.934Z,1.88
2022-10-19T16:01:53.792Z,2.55
2022-10-19T16:04:26.114Z,2.40
2022-10-19T16:06:54.674Z,3.92
2022-10-19T16:09:23.325Z,2.40
2022-10-19T16:11:56.796Z,2.58
2022-10-19T16:14:26.495Z,2.70
2022-10-19T16:16:59.520Z,2.67
2022-10-19T16:19:29.731Z,4.00
2022-10-19T16:21:58.261Z,3.67
2022-10-19T16:24:26.829Z,3.60
2022-10-19T16:26:55.356Z,3.25
2022-10-19T16:29:28.222Z,3.58
2022-10-19T16:31:57.753Z,3.58
2022-10-19T16:34:26.487Z,4.22
2022-10-19T16:36:56.374Z,4.70
2022-10-19T16:39:25.759Z,4.43
2022-10-19T16:41:54.323Z,4.55
2022-10-19T16:44:22.866Z,5.07
2022-10-19T16:46:51.509Z,4.82
2022-10-19T16:49:20.760Z,4.88
2022-10-19T16:51:51.952Z,7.72
2022-10-19T16:54:26.519Z,5.43
2022-10-19T16:56:55.713Z,5.47
2022-10-19T16:59:24.330Z,5.20
2022-10-19T17:01:53.894Z,7.28
2022-10-19T17:04:22.757Z,7.47
2022-10-19T17:06:51.256Z,7.68
2022-10-19T17:12:10.483Z,9.85
2022-10-19T17:14:40.897Z,10.95
2022-10-19T17:17:10.756Z,20.23
2022-10-19T17:19:39.425Z,37.40
2022-10-19T17:22:07.954Z,26.95
2022-10-19T17:24:37.567Z,21.83
2022-10-19T17:27:06.267Z,21.27
2022-10-19T17:29:36.716Z,16.38
2022-10-19T17:32:05.395Z,13.98
2022-10-19T17:34:33.924Z,14.98
2022-10-19T17:37:02.548Z,11.27
2022-10-19T17:39:31.204Z,9.75
2022-10-19T17:42:02.116Z,7.68
2022-10-19T17:44:32.034Z,12.98
2022-10-19T17:47:02.295Z,8.00
2022-10-19T17:49:30.853Z,7.53
2022-10-19T17:51:59.690Z,7.50
2022-10-19T17:54:28.346Z,11.05
2022-10-19T17:56:57.096Z,8.38
2022-10-19T17:59:34.930Z,7.07
2022-10-19T18:02:11.680Z,6.90
2022-10-19T18:04:40.507Z,5.15
2022-10-19T18:07:09.181Z,5.10
2022-10-19T18:09:37.959Z,4.60
2022-10-19T18:12:07.509Z,5.40
2022-10-19T18:14:36.204Z,4.95
2022-10-19T18:17:05.153Z,4.57
2022-10-19T18:19:35.044Z,4.07
2022-10-19T18:22:04.043Z,3.83
2022-10-19T18:24:34.674Z,4.43
2022-10-19T18:27:03.171Z,4.70
2022-10-19T18:29:31.788Z,5.00
2022-10-19T18:32:01.514Z,4.35
2022-10-19T18:34:34.916Z,11.05
2022-10-19T18:37:03.417Z,5.32
2022-10-19T18:39:31.991Z,6.68
2022-10-19T18:42:00.710Z,6.20
2022-10-19T18:44:32.513Z,5.25
2022-10-19T18:47:02.104Z,5.57
2022-10-19T18:49:30.880Z,5.00
2022-10-19T18:52:00.875Z,5.45
2022-10-19T18:54:29.485Z,4.57
2022-10-19T18:56:58.190Z,4.68
2022-10-19T19:01:56.298Z,4.38
2022-10-19T19:04:25.160Z,4.82
2022-10-19T19:06:53.837Z,7.40
2022-10-19T19:09:23.742Z,8.00
2022-10-19T19:11:54.286Z,6.70
2022-10-19T19:14:22.903Z,7.03
2022-10-19T19:16:51.620Z,5.28
2022-10-19T19:19:20.767Z,5.95
2022-10-19T19:21:49.933Z,4.93
2022-10-19T19:24:20.787Z,5.28
2022-10-19T19:26:52.811Z,4.63
2022-10-19T19:29:23.158Z,4.00
2022-10-19T19:31:53.412Z,4.03
2022-10-19T19:34:22.039Z,3.42
2022-10-19T19:36:50.755Z,3.50
2022-10-19T19:39:20.974Z,3.45
2022-10-19T19:41:51.072Z,3.20
2022-10-19T19:44:20.245Z,3.28
2022-10-19T19:46:49.087Z,3.05
2022-10-19T19:49:17.895Z,3.10
2022-10-19T19:51:46.506Z,2.90
2022-10-19T19:54:15.024Z,2.67
2022-10-19T19:56:43.675Z,3.22
2022-10-19T19:59:14.201Z,2.80
2022-10-19T20:01:42.998Z,2.85
2022-10-19T20:04:12.549Z,3.10
2022-10-19T20:06:42.984Z,3.10
2022-10-19T20:09:11.905Z,2.80
2022-10-19T20:11:42.669Z,3.58
2022-10-19T20:14:13.268Z,3.42
2022-10-19T20:16:42.250Z,3.78
2022-10-19T20:19:12.623Z,3.00
2022-10-19T20:21:42.209Z,3.00
2022-10-19T20:24:11.756Z,3.35
2022-10-19T20:26:40.426Z,3.50
2022-10-19T20:29:09.146Z,3.58
2022-10-19T20:31:40.585Z,3.55
2022-10-19T20:34:12.309Z,3.67
2022-10-19T20:36:41.796Z,4.65
2022-10-19T20:39:10.860Z,3.72
2022-10-19T20:41:39.885Z,3.50
2022-10-19T20:44:08.739Z,3.72
2022-10-19T20:46:38.863Z,4.05
2022-10-19T20:49:07.596Z,4.00
2022-10-19T20:51:38.052Z,3.35
2022-10-19T20:54:08.775Z,3.13
2022-10-19T20:56:39.714Z,4.35
2022-10-19T20:59:10.603Z,3.63
2022-10-19T21:01:42.406Z,3.78
2022-10-19T21:04:14.437Z,4.03
2022-10-19T21:06:44.713Z,4.50
2022-10-19T21:09:17.079Z,3.33
2022-10-19T21:11:47.444Z,5.45
2022-10-19T21:14:18.044Z,5.10
2022-10-19T21:16:48.272Z,4.55
2022-10-19T21:19:19.530Z,4.00
2022-10-19T21:21:49.983Z,3.75
2022-10-19T21:24:20.504Z,3.80
2022-10-19T21:26:49.634Z,3.95
2022-10-19T21:29:19.259Z,3.78
2022-10-19T21:31:50.712Z,3.85
2022-10-19T21:34:21.444Z,3.67
2022-10-19T21:36:50.434Z,3.65
2022-10-19T21:39:19.577Z,4.55
2022-10-19T21:41:49.161Z,4.22
2022-10-19T21:44:18.888Z,3.95
2022-10-19T21:46:50.204Z,3.90
2022-10-19T21:49:19.367Z,4.07
2022-10-19T21:51:49.959Z,4.07
2022-10-19T21:54:19.989Z,4.25
2022-10-19T21:56:48.969Z,4.32
2022-10-19T21:59:17.520Z,4.10
2022-10-19T22:01:46.047Z,4.07
2022-10-19T22:04:18.124Z,4.72
2022-10-19T22:06:47.075Z,4.65
2022-10-19T22:09:17.799Z,4.45
2022-10-19T22:11:46.671Z,4.50
2022-10-19T22:14:16.396Z,4.53
2022-10-19T22:16:45.171Z,5.00
2022-10-19T22:19:15.219Z,5.10
2022-10-19T22:21:43.716Z,5.15
2022-10-19T22:24:14.560Z,4.97
2022-10-19T22:26:44.788Z,5.07
2022-10-19T22:29:13.380Z,5.28
2022-10-19T22:31:42.111Z,4.85
2022-10-19T22:34:13.466Z,5.22
2022-10-19T22:36:43.978Z,5.50
2022-10-19T22:39:13.092Z,5.03
2022-10-19T22:41:41.750Z,5.40
2022-10-19T22:44:10.476Z,5.18
2022-10-19T22:46:39.068Z,5.50
2022-10-19T22:51:43.847Z,5.40
2022-10-19T22:54:12.364Z,5.07
2022-10-19T22:56:41.123Z,5.40
2022-10-19T22:59:10.743Z,5.20
2022-10-19T23:01:39.428Z,5.18
2022-10-19T23:04:08.102Z,4.30
2022-10-19T23:06:36.648Z,4.75
2022-10-19T23:09:06.811Z,4.68
2022-10-19T23:11:35.372Z,4.43
2022-10-19T23:14:03.867Z,4.10
2022-10-19T23:16:32.651Z,5.43
2022-10-19T23:19:01.246Z,4.57
2022-10-19T23:21:29.775Z,4.40
2022-10-19T23:23:58.351Z,4.32
2022-10-19T23:26:28.335Z,4.07
2022-10-19T23:28:56.859Z,3.88
2022-10-19T23:31:28.473Z,4.43
2022-10-19T23:33:57.539Z,4.10
2022-10-19T23:36:28.065Z,4.38
2022-10-19T23:38:58.597Z,3.97
2022-10-19T23:41:28.949Z,4.10
2022-10-19T23:43:57.489Z,4.40
2022-10-19T23:46:26.266Z,4.32
2022-10-19T23:48:54.849Z,4.05
2022-10-19T23:51:23.803Z,4.57
2022-10-19T23:53:53.582Z,4.10
2022-10-19T23:56:23.555Z,4.32
2022-10-19T23:58:53.957Z,4.20
